Charleston Heights, South Carolina
Current Conditions -  °F | °C
As of 10:56 PM on Friday 24 Oct 2014 (Local Time) from KCHS Reporting Station
Broken Clouds Broken Clouds  
Wind Chill: 15°   Ceiling: 15000
Heat Index: 15°   Visibility: 10mi
Dew Point: 12°   Wind: 0mph
Humidity: 81%   Direction: NA
Pressure: 30"   Gusts: NA
Location:  32.8713°N, 80.0388°W
Report Text: KCHS 250256Z 00000KT 10SM BKN150 15/12 A3000 RMK AO2 SLP159 T01500117 53004
Loading
Personal Weather Stations






























Interactive Weather Map
Tropical Storm Tracking
New forecast layout! Learn more

10-Day Weather Forecast

Advertisements
Track Severe Weather on mobile